createdAt,value
2019-02-07T00:04:19.774Z,5.82
2019-02-07T00:07:23.175Z,5.92
2019-02-07T00:10:26.961Z,6.07
2019-02-07T00:13:32.327Z,6.15
2019-02-07T00:16:35.798Z,6.14
2019-02-07T00:19:39.440Z,6.20
2019-02-07T00:22:44.705Z,6.31
2019-02-07T00:25:48.365Z,6.23
2019-02-07T00:28:51.764Z,6.25
2019-02-07T00:31:56.891Z,6.29
2019-02-07T00:35:00.351Z,6.31
2019-02-07T00:38:03.758Z,6.27
2019-02-07T00:41:26.495Z,6.41
2019-02-07T00:44:30.268Z,6.48
2019-02-07T00:47:33.910Z,6.34
2019-02-07T00:50:37.326Z,6.47
2019-02-07T00:53:42.449Z,6.37
2019-02-07T00:56:46.081Z,6.47
2019-02-07T00:59:49.800Z,6.36
2019-02-07T01:02:54.055Z,6.41
2019-02-07T01:05:57.763Z,6.24
2019-02-07T01:09:01.155Z,6.34
2019-02-07T01:12:44.640Z,6.23
2019-02-07T01:15:48.278Z,6.33
2019-02-07T01:18:53.642Z,6.25
2019-02-07T01:21:57.114Z,6.20
2019-02-07T01:25:00.519Z,6.32
2019-02-07T01:28:05.633Z,6.16
2019-02-07T01:31:09.036Z,6.22
2019-02-07T01:34:12.737Z,6.10
2019-02-07T01:37:17.853Z,6.19
2019-02-07T01:41:01.153Z,6.08
2019-02-07T01:44:24.506Z,6.10
2019-02-07T01:47:27.974Z,6.02
2019-02-07T01:50:31.450Z,5.99
2019-02-07T01:53:34.907Z,6.03
2019-02-07T01:56:38.316Z,6.02
2019-02-07T01:59:41.731Z,6.08
2019-02-07T02:02:45.175Z,6.00
2019-02-07T02:05:48.586Z,6.07
2019-02-07T02:08:52.042Z,6.14
2019-02-07T02:11:55.452Z,6.12
2019-02-07T02:14:58.863Z,6.08
2019-02-07T02:18:02.250Z,6.16
2019-02-07T02:21:06.113Z,6.12
2019-02-07T02:24:09.952Z,6.17
2019-02-07T02:27:13.423Z,6.21
2019-02-07T02:30:56.727Z,6.24
2019-02-07T02:34:00.476Z,6.30
2019-02-07T02:37:06.017Z,6.23
2019-02-07T02:40:49.328Z,6.22
2019-02-07T02:43:52.713Z,6.15
2019-02-07T02:46:56.456Z,6.24
2019-02-07T02:49:59.870Z,6.29
2019-02-07T02:53:03.564Z,6.37
2019-02-07T02:56:06.965Z,6.13
2019-02-07T02:59:10.427Z,6.17
2019-02-07T03:02:33.082Z,6.17
2019-02-07T03:05:55.666Z,6.28
2019-02-07T03:09:37.530Z,6.24
2019-02-07T03:13:00.574Z,6.20
2019-02-07T03:16:23.593Z,6.10
2019-02-07T03:19:46.111Z,6.04
2019-02-07T03:23:08.632Z,6.01
2019-02-07T03:26:31.478Z,6.02
2019-02-07T03:29:53.998Z,6.08
2019-02-07T03:33:16.753Z,6.08
2019-02-07T03:39:49.741Z,6.16
2019-02-07T03:43:12.694Z,6.14
2019-02-07T03:46:17.723Z,6.18
2019-02-07T03:56:15.223Z,6.19
2019-02-07T03:59:37.753Z,6.14
2019-02-07T04:03:00.279Z,6.05
2019-02-07T04:16:15.073Z,5.96
2019-02-07T04:19:32.556Z,5.92
2019-02-07T04:26:05.179Z,6.07
2019-02-07T04:29:27.969Z,6.13
2019-02-07T04:32:50.747Z,6.05
2019-02-07T04:42:51.866Z,6.19
2019-02-07T04:46:26.414Z,6.14
2019-02-07T04:49:38.858Z,6.18
2019-02-07T04:53:01.369Z,6.22
2019-02-07T04:56:24.121Z,6.25
2019-02-07T05:09:17.874Z,6.27
2019-02-07T05:12:40.415Z,6.24
2019-02-07T05:16:03.183Z,6.23
2019-02-07T05:19:25.710Z,6.23
2019-02-07T05:22:39.901Z,6.39
2019-02-07T05:25:44.941Z,6.44
2019-02-07T05:29:04.933Z,6.40
2019-02-07T05:32:12.760Z,6.42
2019-02-07T05:35:21.115Z,6.48
2019-02-07T05:38:41.442Z,6.41
2019-02-07T05:42:01.678Z,6.43
2019-02-07T05:45:24.572Z,6.48
2019-02-07T05:48:46.059Z,6.38
2019-02-07T05:52:07.572Z,6.50
2019-02-07T05:55:21.630Z,6.50
2019-02-07T05:58:29.775Z,6.40
2019-02-07T06:01:37.657Z,6.44
2019-02-07T06:04:48.456Z,6.53
2019-02-07T06:07:53.639Z,6.49
2019-02-07T06:11:01.543Z,6.36
2019-02-07T06:14:23.706Z,6.44
2019-02-07T06:17:44.998Z,6.32
2019-02-07T06:20:50.085Z,6.37
2019-02-07T06:24:04.098Z,6.41
2019-02-07T06:27:14.859Z,6.38
2019-02-07T06:30:20.977Z,6.27
2019-02-07T06:33:41.255Z,6.38
2019-02-07T06:36:49.199Z,6.40
2019-02-07T06:40:00.365Z,6.27
2019-02-07T06:43:21.595Z,6.33
2019-02-07T06:46:26.635Z,6.29
2019-02-07T06:49:49.786Z,6.38
2019-02-07T06:53:11.348Z,6.27
2019-02-07T06:56:16.517Z,6.29
2019-02-07T06:59:33.358Z,6.27
2019-02-07T07:02:38.461Z,6.31
2019-02-07T07:05:43.809Z,6.25
2019-02-07T07:09:05.280Z,6.33
2019-02-07T07:12:10.556Z,6.36
2019-02-07T07:15:21.492Z,6.48
2019-02-07T07:18:43.447Z,6.50
2019-02-07T07:22:07.299Z,6.48
2019-02-07T07:25:12.680Z,6.51
2019-02-07T07:28:34.537Z,6.54
2019-02-07T07:31:39.888Z,6.58
2019-02-07T07:35:01.731Z,6.51
2019-02-07T07:38:06.904Z,6.62
2019-02-07T07:41:24.661Z,6.67
2019-02-07T07:44:29.831Z,6.73
2019-02-07T07:47:51.275Z,6.71
2019-02-07T07:50:59.289Z,6.81
2019-02-07T07:54:20.631Z,6.94
2019-02-07T07:57:25.640Z,7.01
2019-02-07T08:00:45.975Z,7.10
2019-02-07T08:03:54.081Z,7.12
2019-02-07T08:07:04.560Z,7.19
2019-02-07T08:10:22.306Z,7.20
2019-02-07T08:13:39.595Z,7.31
2019-02-07T08:16:44.654Z,7.35
2019-02-07T08:19:49.704Z,7.86
2019-02-07T08:22:57.649Z,8.16
2019-02-07T08:26:11.610Z,8.26
2019-02-07T08:29:22.758Z,8.31
2019-02-07T08:32:42.835Z,8.39
2019-02-07T08:35:50.594Z,8.39
2019-02-07T08:39:01.610Z,8.41
2019-02-07T08:42:23.352Z,8.44
2019-02-07T08:45:29.030Z,8.38
2019-02-07T08:48:36.772Z,8.40
2019-02-07T08:51:50.735Z,8.41
2019-02-07T08:54:55.863Z,8.40
2019-02-07T08:58:10.010Z,8.46
2019-02-07T09:01:17.687Z,8.56
2019-02-07T09:04:39.118Z,8.49
2019-02-07T09:08:00.772Z,8.44
2019-02-07T09:11:22.921Z,8.46
2019-02-07T09:14:28.000Z,8.45
2019-02-07T09:17:36.085Z,8.45
2019-02-07T09:20:43.870Z,8.43
2019-02-07T09:24:05.227Z,8.48
2019-02-07T09:27:19.024Z,8.54
2019-02-07T09:30:40.859Z,8.41
2019-02-07T09:33:48.876Z,8.40
2019-02-07T09:36:57.006Z,8.44
2019-02-07T09:40:11.602Z,8.44
2019-02-07T09:43:31.596Z,8.50
2019-02-07T09:46:42.140Z,8.51
2019-02-07T09:49:59.433Z,8.49
2019-02-07T09:53:04.541Z,8.49
2019-02-07T09:56:10.888Z,8.53
2019-02-07T09:59:26.291Z,8.58
2019-02-07T10:02:55.718Z,8.65
2019-02-07T10:06:09.579Z,8.75
2019-02-07T10:09:18.076Z,8.87
2019-02-07T10:12:38.353Z,8.82
2019-02-07T10:15:43.551Z,8.92
2019-02-07T10:18:51.771Z,8.99
2019-02-07T10:21:59.761Z,9.11
2019-02-07T10:25:04.859Z,9.21
2019-02-07T10:28:12.786Z,9.24
2019-02-07T10:31:17.937Z,9.22
2019-02-07T10:34:39.109Z,9.22
2019-02-07T10:37:56.202Z,9.18
2019-02-07T10:41:01.490Z,9.37
2019-02-07T10:44:09.655Z,9.56
2019-02-07T10:47:23.526Z,9.37
2019-02-07T10:50:45.387Z,9.10
2019-02-07T10:53:50.437Z,9.03
2019-02-07T10:57:11.871Z,9.02
2019-02-07T11:00:25.528Z,9.14
2019-02-07T11:03:39.854Z,9.07
2019-02-07T11:06:50.622Z,9.01
2019-02-07T11:09:55.964Z,9.01
2019-02-07T11:13:17.570Z,9.18
2019-02-07T11:16:40.941Z,9.10
2019-02-07T11:20:01.089Z,9.04
2019-02-07T11:23:12.201Z,9.15
2019-02-07T11:26:33.554Z,9.18
2019-02-07T11:29:53.377Z,9.29
2019-02-07T11:32:58.793Z,9.60
2019-02-07T11:36:03.836Z,9.86
2019-02-07T11:39:16.733Z,9.85
2019-02-07T11:42:21.797Z,9.89
2019-02-07T11:45:27.202Z,9.73
2019-02-07T11:48:47.417Z,9.95
2019-02-07T11:51:55.122Z,10.12
2019-02-07T11:55:00.410Z,10.38
2019-02-07T11:58:22.496Z,10.18
2019-02-07T12:01:38.341Z,10.43
2019-02-07T12:04:59.859Z,10.36
2019-02-07T12:08:13.448Z,10.26
2019-02-07T12:11:22.144Z,10.42
2019-02-07T12:14:27.201Z,10.47
2019-02-07T12:17:48.497Z,10.78
2019-02-07T12:20:53.509Z,10.85
2019-02-07T12:24:04.530Z,10.99
2019-02-07T12:27:12.337Z,11.14
2019-02-07T12:30:31.703Z,10.97
2019-02-07T12:33:36.752Z,10.78
2019-02-07T12:36:57.038Z,10.76
2019-02-07T12:40:09.069Z,10.94
2019-02-07T12:43:16.648Z,10.92
2019-02-07T12:46:35.322Z,11.05
2019-02-07T12:49:46.658Z,11.07
2019-02-07T12:52:51.708Z,10.95
2019-02-07T12:56:03.407Z,11.28
2019-02-07T12:59:14.482Z,11.08
2019-02-07T13:02:22.199Z,11.08
2019-02-07T13:05:27.236Z,11.05
2019-02-07T13:08:41.501Z,11.24
2019-02-07T13:11:46.554Z,11.48
2019-02-07T13:15:00.692Z,11.18
2019-02-07T13:18:12.058Z,11.43
2019-02-07T13:21:23.444Z,11.35
2019-02-07T13:24:31.261Z,11.56
2019-02-07T13:27:39.780Z,11.28
2019-02-07T13:30:50.489Z,11.26
2019-02-07T13:33:58.244Z,11.24
2019-02-07T13:37:03.576Z,11.43
2019-02-07T13:40:11.998Z,11.50
2019-02-07T13:43:20.324Z,11.52
2019-02-07T13:46:41.313Z,11.64
2019-02-07T13:49:52.080Z,11.66
2019-02-07T13:53:04.627Z,11.56
2019-02-07T13:56:26.249Z,11.70
2019-02-07T13:59:47.810Z,11.38
2019-02-07T14:03:09.013Z,11.58
2019-02-07T14:06:31.874Z,11.48
2019-02-07T14:09:37.300Z,11.20
2019-02-07T14:12:42.344Z,11.09
2019-02-07T14:15:59.668Z,11.00
2019-02-07T14:19:20.942Z,11.18
2019-02-07T14:22:26.006Z,11.14
2019-02-07T14:25:47.842Z,11.10
2019-02-07T14:28:55.339Z,10.95
2019-02-07T14:32:09.134Z,10.99
2019-02-07T14:35:33.243Z,11.03
2019-02-07T14:38:43.772Z,11.05
2019-02-07T14:41:51.864Z,10.85
2019-02-07T14:44:56.918Z,11.01
2019-02-07T14:48:00.310Z,10.91
2019-02-07T14:51:03.784Z,10.93
2019-02-07T14:54:07.183Z,10.95
2019-02-07T14:57:10.647Z,11.11
2019-02-07T15:00:19.770Z,11.18
2019-02-07T15:03:23.238Z,11.28
2019-02-07T15:06:26.635Z,11.09
2019-02-07T15:09:30.106Z,11.13
2019-02-07T15:12:33.506Z,11.14
2019-02-07T15:15:36.888Z,11.08
2019-02-07T15:18:40.629Z,10.96
2019-02-07T15:21:44.113Z,10.78
2019-02-07T15:24:47.578Z,10.91
2019-02-07T15:27:50.999Z,10.72
2019-02-07T15:30:54.386Z,10.79
2019-02-07T15:33:58.070Z,10.75
2019-02-07T15:37:01.469Z,10.72
2019-02-07T15:40:10.581Z,10.61
2019-02-07T15:43:14.082Z,10.59
2019-02-07T15:46:17.501Z,10.69
2019-02-07T15:49:20.903Z,10.45
2019-02-07T15:52:24.389Z,10.52
2019-02-07T15:55:27.873Z,10.55
2019-02-07T15:58:47.640Z,10.45
2019-02-07T16:02:07.175Z,10.40
2019-02-07T16:05:12.684Z,10.45
2019-02-07T16:08:16.169Z,10.24
2019-02-07T16:11:19.927Z,10.35
2019-02-07T16:14:23.385Z,10.38
2019-02-07T16:17:26.790Z,10.39
2019-02-07T16:20:30.260Z,10.32
2019-02-07T16:23:33.731Z,10.25
2019-02-07T16:26:39.066Z,10.16
2019-02-07T16:29:42.704Z,10.00
2019-02-07T16:32:47.139Z,10.10
2019-02-07T16:35:50.741Z,10.00
2019-02-07T16:38:54.128Z,9.93
2019-02-07T16:42:05.795Z,9.92
2019-02-07T16:45:07.896Z,9.91
2019-02-07T16:48:11.456Z,9.89
2019-02-07T16:51:15.150Z,9.89
2019-02-07T16:54:18.933Z,9.84
2019-02-07T16:57:22.645Z,9.74
2019-02-07T17:00:36.614Z,9.66
2019-02-07T17:03:40.741Z,9.57
2019-02-07T17:06:44.132Z,9.67
2019-02-07T17:09:47.535Z,9.45
2019-02-07T17:12:52.050Z,9.43
2019-02-07T17:15:55.475Z,9.36
2019-02-07T17:18:58.912Z,9.33
2019-02-07T17:22:02.318Z,9.13
2019-02-07T17:25:45.616Z,9.16
2019-02-07T17:28:49.450Z,9.08
2019-02-07T17:31:53.078Z,9.16
2019-02-07T17:34:56.483Z,9.10
2019-02-07T17:38:00.422Z,9.07
2019-02-07T17:41:04.202Z,9.11
2019-02-07T17:44:27.529Z,9.07
2019-02-07T17:47:50.660Z,9.07
2019-02-07T17:50:54.317Z,9.01
2019-02-07T17:53:57.716Z,9.01
2019-02-07T17:57:01.096Z,8.88
2019-02-07T18:00:44.415Z,8.93
2019-02-07T18:03:47.801Z,8.96
2019-02-07T18:06:51.299Z,8.89
2019-02-07T18:09:55.029Z,8.84
2019-02-07T18:12:58.418Z,8.83
2019-02-07T18:16:21.418Z,8.83
2019-02-07T18:19:25.292Z,8.94
2019-02-07T18:22:28.774Z,8.89
2019-02-07T18:25:32.314Z,8.91
2019-02-07T18:28:35.710Z,8.95
2019-02-07T18:31:58.587Z,8.94
2019-02-07T18:35:21.514Z,9.14
2019-02-07T18:38:24.891Z,9.03
2019-02-07T18:41:47.734Z,9.09
2019-02-07T18:44:51.213Z,9.16
2019-02-07T18:47:54.669Z,9.03
2019-02-07T18:50:58.070Z,8.83
2019-02-07T18:54:01.732Z,8.94
2019-02-07T18:57:05.264Z,8.93
2019-02-07T19:00:48.622Z,8.79
2019-02-07T19:03:52.013Z,8.69
2019-02-07T19:06:55.419Z,8.51
2019-02-07T19:10:19.016Z,8.47
2019-02-07T19:13:22.743Z,8.60
2019-02-07T19:16:26.148Z,8.50
2019-02-07T19:19:48.865Z,8.61
2019-02-07T19:22:52.261Z,8.40
2019-02-07T19:25:55.898Z,8.30
2019-02-07T19:28:59.611Z,8.37
2019-02-07T19:32:09.865Z,8.40
2019-02-07T19:35:32.923Z,8.37
2019-02-07T19:38:36.397Z,8.22
2019-02-07T19:41:39.782Z,8.29
2019-02-07T19:45:02.771Z,8.24
2019-02-07T19:48:27.447Z,8.25
2019-02-07T19:51:31.126Z,8.19
2019-02-07T19:54:34.525Z,8.27
2019-02-07T19:57:37.908Z,8.36
2019-02-07T20:00:41.296Z,8.19
2019-02-07T20:03:44.759Z,8.19
2019-02-07T20:06:48.148Z,8.29
2019-02-07T20:09:51.803Z,8.25
2019-02-07T20:16:57.962Z,8.21
2019-02-07T20:20:01.370Z,8.18
2019-02-07T20:23:24.866Z,8.28
2019-02-07T20:26:47.720Z,8.16
2019-02-07T20:30:31.080Z,8.14
2019-02-07T20:33:34.485Z,8.20
2019-02-07T20:36:38.407Z,8.22
2019-02-07T20:39:41.806Z,8.09
2019-02-07T20:46:15.216Z,8.18
2019-02-07T20:49:18.605Z,8.25
2019-02-07T20:52:27.179Z,7.92
2019-02-07T20:55:27.191Z,7.86
2019-02-07T20:58:30.571Z,7.91
2019-02-07T21:01:33.963Z,7.85
2019-02-07T21:04:37.605Z,7.62
2019-02-07T21:07:41.013Z,7.71
2019-02-07T21:10:44.643Z,7.55
2019-02-07T21:13:48.056Z,7.40
2019-02-07T21:16:51.435Z,7.50
2019-02-07T21:19:54.831Z,7.49
2019-02-07T21:23:39.869Z,7.38
2019-02-07T21:26:43.261Z,7.38
2019-02-07T21:29:46.969Z,7.33
2019-02-07T21:36:19.624Z,7.31
2019-02-07T21:39:23.248Z,7.29
2019-02-07T21:42:26.701Z,7.26
2019-02-07T21:46:10.055Z,7.25
2019-02-07T21:49:13.453Z,7.22
2019-02-07T21:52:17.101Z,7.20
2019-02-07T21:56:02.126Z,7.32
2019-02-07T21:59:05.689Z,7.18
2019-02-07T22:02:09.073Z,7.05
2019-02-07T22:05:12.526Z,7.07
2019-02-07T22:08:16.166Z,6.92
2019-02-07T22:11:19.589Z,7.05
2019-02-07T22:14:22.961Z,7.02
2019-02-07T22:17:26.351Z,7.03
2019-02-07T22:20:50.535Z,6.88
2019-02-07T22:23:53.932Z,6.92
2019-02-07T22:26:57.322Z,6.93
2019-02-07T22:30:00.732Z,6.99
2019-02-07T22:33:44.030Z,6.95
2019-02-07T22:36:47.694Z,6.81
2019-02-07T22:39:51.334Z,6.82
2019-02-07T22:42:55.202Z,6.76
2019-02-07T22:45:59.075Z,6.68
2019-02-07T22:49:02.464Z,6.70
2019-02-07T22:52:05.984Z,6.57
2019-02-07T22:55:11.359Z,6.64
2019-02-07T22:58:14.772Z,6.50
2019-02-07T23:01:38.937Z,6.57
2019-02-07T23:04:42.413Z,6.54
2019-02-07T23:07:46.033Z,6.59
2019-02-07T23:10:49.674Z,6.58
2019-02-07T23:13:53.408Z,6.55
2019-02-07T23:16:56.885Z,6.49
2019-02-07T23:20:00.261Z,6.56
2019-02-07T23:23:43.549Z,6.44
2019-02-07T23:26:46.944Z,6.45
2019-02-07T23:29:50.332Z,6.58
2019-02-07T23:32:54.008Z,6.71
2019-02-07T23:35:57.408Z,6.84
2019-02-07T23:39:00.799Z,6.72
2019-02-07T23:45:34.070Z,6.81
2019-02-07T23:48:37.526Z,6.83
2019-02-07T23:51:41.101Z,6.80
2019-02-07T23:54:44.549Z,6.98
2019-02-07T23:57:48.020Z,6.79
